Terminal Aerodrome Forecast
Issued by NWS Grand Forks, ND

Home | Current Version | Previous Version | Text Only | Print | Product List | Glossary Off
Versions: 1 2 3 4 5 6 7 8 9 10 11 12 13 14

000
FTUS43 KFGF 191730
TAFFAR
TAF
KFAR 191730Z 1918/2018 14014G20KT P6SM BKN250
     FM201100 16014KT P6SM OVC025
     FM201300 16013KT 4SM BR VCSH OVC020
     FM201600 19013KT 1 1/2SM BR VCSH OVC008=

USA.gov is the U.S. government's official web portal to all federal, state and local government web resources and services.